Time;durP1;ratioP1;P1;durP2;ratioP2;P2;SDS_P1;SDS_P2;PMS_P1;PMS_P2;Temp;Humidity;BMP_temperature;BMP_pressure;BME280_temperature;BME280_humidity;BME280_pressure;Samples;Min_cycle;Max_cycle;Signal;HPM_P1;HPM_P2
2022/09/14 00:00:09;;;;;;;17.17;10.63;;;;;;;13.80;100.00;98767.88;5117186;28;20039;-77
2022/09/14 00:02:56;;;;;;;17.08;10.65;;;;;;;13.80;100.00;98767.88;5116756;28;20107;-77
2022/09/14 00:05:24;;;;;;;18.60;11.60;;;;;;;13.90;100.00;98762.50;5116847;28;20074;-77
2022/09/14 00:07:53;;;;;;;23.35;11.77;;;;;;;13.85;100.00;98760.19;5117043;28;20047;-76
2022/09/14 00:10:22;;;;;;;16.27;10.85;;;;;;;13.78;100.00;98759.00;5117070;27;20044;-77
2022/09/14 00:12:49;;;;;;;19.45;11.75;;;;;;;13.72;100.00;98762.25;5116236;28;20051;-77
2022/09/14 00:15:17;;;;;;;18.38;10.77;;;;;;;13.79;100.00;98751.69;5116766;28;20128;-77
2022/09/14 00:17:45;;;;;;;19.27;11.63;;;;;;;13.70;100.00;98745.25;5116959;28;20043;-77
2022/09/14 00:20:13;;;;;;;18.25;10.50;;;;;;;13.79;100.00;98738.13;5116825;27;20047;-77
2022/09/14 00:22:40;;;;;;;15.27;10.02;;;;;;;13.76;100.00;98744.69;5116695;28;20477;-77
2022/09/14 00:25:10;;;;;;;19.20;10.75;;;;;;;13.83;100.00;98745.88;5116835;27;20374;-77
2022/09/14 00:27:38;;;;;;;16.17;10.25;;;;;;;13.75;100.00;98738.41;5116193;28;20049;-77
2022/09/14 00:30:06;;;;;;;18.75;11.15;;;;;;;13.71;100.00;98736.09;5116677;28;20051;-77
2022/09/14 00:32:34;;;;;;;15.88;9.85;;;;;;;13.75;100.00;98737.56;5116441;28;20048;-77
2022/09/14 00:35:01;;;;;;;16.95;10.82;;;;;;;13.71;100.00;98733.38;5116030;28;20063;-77
2022/09/14 00:37:29;;;;;;;16.88;10.18;;;;;;;13.65;100.00;98732.06;5115995;28;20487;-77
2022/09/14 00:39:56;;;;;;;16.95;9.98;;;;;;;13.68;100.00;98730.94;5116348;28;20567;-77
2022/09/14 00:42:26;;;;;;;17.65;10.15;;;;;;;13.65;100.00;98725.75;5115722;28;20047;-77
2022/09/14 00:45:02;;;;;;;15.75;9.90;;;;;;;13.62;100.00;98727.75;5116403;27;20048;-77
2022/09/14 00:47:32;;;;;;;17.40;9.82;;;;;;;13.64;100.00;98732.19;5116291;28;20131;-77
2022/09/14 00:50:01;;;;;;;17.08;10.45;;;;;;;13.63;100.00;98717.78;5116286;28;20040;-77
2022/09/14 00:52:33;;;;;;;17.38;10.13;;;;;;;13.62;100.00;98722.31;5116188;27;20043;-77
2022/09/14 00:55:03;;;;;;;15.60;10.05;;;;;;;13.70;100.00;98718.94;5116038;28;20047;-77
2022/09/14 00:57:36;;;;;;;16.38;10.27;;;;;;;13.73;100.00;98723.25;5115655;28;20404;-77
2022/09/14 01:00:06;;;;;;;20.17;10.63;;;;;;;13.87;100.00;98730.16;5116768;28;20039;-77
2022/09/14 01:02:34;;;;;;;15.75;9.07;;;;;;;13.75;100.00;98716.69;5116855;28;20050;-77
2022/09/14 01:05:02;;;;;;;18.83;10.20;;;;;;;13.67;100.00;98721.09;5115783;27;20088;-77
2022/09/14 01:07:52;;;;;;;17.50;10.30;;;;;;;13.66;100.00;98716.63;5115689;27;20039;-76
2022/09/14 01:10:28;;;;;;;19.15;10.75;;;;;;;13.72;100.00;98702.56;5115514;28;20418;-76
2022/09/14 01:13:08;;;;;;;16.75;10.25;;;;;;;13.64;100.00;98707.75;5115854;27;20055;-77
2022/09/14 01:15:42;;;;;;;16.77;9.95;;;;;;;13.77;100.00;98724.72;5115234;28;20054;-76
2022/09/14 01:18:15;;;;;;;18.38;10.77;;;;;;;13.66;100.00;98705.78;5116192;27;20573;-75
2022/09/14 01:20:46;;;;;;;16.60;10.77;;;;;;;13.64;100.00;98700.50;5115413;28;20124;-76
2022/09/14 01:23:18;;;;;;;16.85;10.90;;;;;;;13.62;100.00;98703.34;5116936;27;20070;-77
2022/09/14 01:26:01;;;;;;;17.75;10.73;;;;;;;13.62;100.00;98702.50;5117241;27;20044;-77
2022/09/14 01:28:33;;;;;;;17.83;11.40;;;;;;;13.64;100.00;98703.22;5116798;28;20047;-77
2022/09/14 01:31:03;;;;;;;16.85;11.35;;;;;;;13.61;100.00;98698.06;5115722;27;20056;-77
2022/09/14 01:33:34;;;;;;;17.23;11.20;;;;;;;13.57;100.00;98702.03;5115962;28;20513;-77
2022/09/14 01:36:03;;;;;;;17.77;11.30;;;;;;;13.67;100.00;98694.81;5116762;27;20408;-77
2022/09/14 01:38:33;;;;;;;17.48;10.85;;;;;;;13.58;100.00;98696.47;5114426;28;20050;-77
2022/09/14 01:41:04;;;;;;;17.92;10.63;;;;;;;13.58;100.00;98696.47;5115219;28;20514;-77
2022/09/14 01:43:34;;;;;;;17.83;11.00;;;;;;;13.56;100.00;98689.47;5115809;28;20051;-77
2022/09/14 01:46:06;;;;;;;17.85;11.07;;;;;;;13.59;100.00;98683.75;5116438;27;20112;-77
2022/09/14 01:48:37;;;;;;;18.08;11.02;;;;;;;13.70;100.00;98690.97;5116616;28;20047;-77
2022/09/14 01:51:09;;;;;;;17.77;10.85;;;;;;;13.60;100.00;98680.91;5116794;28;20365;-77
2022/09/14 01:53:39;;;;;;;20.65;10.80;;;;;;;13.59;100.00;98678.34;5114965;28;20043;-76
2022/09/14 01:56:14;;;;;;;19.73;11.98;;;;;;;13.58;100.00;98669.31;5114699;28;20048;-76
2022/09/14 01:58:46;;;;;;;17.27;11.25;;;;;;;13.60;100.00;98671.91;5115587;28;20126;-77
2022/09/14 02:01:19;;;;;;;18.05;10.90;;;;;;;13.61;100.00;98669.06;5114724;28;20043;-77
2022/09/14 02:03:49;;;;;;;18.35;11.30;;;;;;;13.59;100.00;98665.63;5116191;28;20059;-76
2022/09/14 02:06:22;;;;;;;17.92;11.52;;;;;;;13.55;100.00;98660.63;5115195;28;20071;-77
2022/09/14 02:08:50;;;;;;;18.60;11.55;;;;;;;13.65;100.00;98671.50;5114225;28;20048;-77
2022/09/14 02:11:17;;;;;;;18.58;11.27;;;;;;;13.73;100.00;98669.00;5114612;28;20504;-77
2022/09/14 02:13:47;;;;;;;20.58;11.98;;;;;;;13.72;100.00;98670.00;5114326;28;20059;-77
2022/09/14 02:16:14;;;;;;;17.63;11.27;;;;;;;13.75;100.00;98661.56;5114558;28;20044;-77
2022/09/14 02:18:43;;;;;;;18.08;11.27;;;;;;;13.84;100.00;98662.59;5114369;28;20548;-76
2022/09/14 02:21:14;;;;;;;22.25;12.40;;;;;;;13.73;100.00;98660.84;5113720;27;20043;-77
2022/09/14 02:23:42;;;;;;;17.60;11.32;;;;;;;13.79;100.00;98652.16;5114178;28;20050;-77
2022/09/14 02:26:10;;;;;;;18.02;10.88;;;;;;;13.79;100.00;98649.44;5114397;28;20480;-77
2022/09/14 02:28:38;;;;;;;17.67;11.68;;;;;;;13.72;100.00;98657.25;5114141;28;20065;-77
2022/09/14 02:31:13;;;;;;;17.80;11.52;;;;;;;13.63;100.00;98660.81;5114297;27;20050;-77
2022/09/14 02:33:46;;;;;;;19.20;11.93;;;;;;;13.66;100.00;98654.22;5113947;28;20052;-76
2022/09/14 02:36:17;;;;;;;19.13;11.98;;;;;;;13.59;100.00;98635.78;5113604;28;20048;-77
2022/09/14 02:38:50;;;;;;;21.10;12.25;;;;;;;13.67;100.00;98645.13;5094287;28;20051;-77
2022/09/14 02:41:21;;;;;;;19.58;12.13;;;;;;;13.72;100.00;98637.44;5095035;28;20067;-77
2022/09/14 02:43:52;;;;;;;18.05;11.70;;;;;;;13.89;100.00;98642.19;5093460;28;20048;-76
2022/09/14 02:46:27;;;;;;;19.08;12.02;;;;;;;13.81;100.00;98636.59;5092746;28;20504;-77
2022/09/14 02:49:00;;;;;;;18.70;12.52;;;;;;;13.80;100.00;98634.88;5094012;28;20048;-77
2022/09/14 02:51:31;;;;;;;21.27;11.98;;;;;;;13.90;100.00;98632.22;5094027;28;20493;-77
2022/09/14 02:54:00;;;;;;;19.17;12.52;;;;;;;13.88;100.00;98629.63;5094818;28;20052;-76
2022/09/14 02:56:29;;;;;;;18.55;12.05;;;;;;;14.00;100.00;98627.69;5093499;28;20505;-76
2022/09/14 02:58:56;;;;;;;21.65;12.20;;;;;;;13.94;100.00;98630.06;5096553;28;20043;-76
2022/09/14 03:01:26;;;;;;;19.58;12.43;;;;;;;14.13;100.00;98630.16;5113761;28;20043;-77
2022/09/14 03:03:54;;;;;;;20.42;12.50;;;;;;;13.98;100.00;98623.38;5113381;28;20134;-77
2022/09/14 03:06:21;;;;;;;21.45;12.68;;;;;;;13.87;100.00;98618.91;5113334;27;20047;-77
2022/09/14 03:08:50;;;;;;;20.05;13.43;;;;;;;13.85;100.00;98618.16;5113567;28;20043;-76
2022/09/14 03:11:17;;;;;;;20.13;13.05;;;;;;;14.04;100.00;98620.09;5113624;28;20043;-77
2022/09/14 03:13:45;;;;;;;21.75;12.90;;;;;;;14.16;100.00;98619.00;5113476;27;20071;-77
2022/09/14 03:16:15;;;;;;;19.75;12.63;;;;;;;14.02;100.00;98622.97;5113708;27;20051;-75
2022/09/14 03:18:44;;;;;;;21.05;12.98;;;;;;;14.19;100.00;98613.28;5113567;28;20039;-77
2022/09/14 03:21:13;;;;;;;20.25;13.00;;;;;;;14.20;100.00;98625.88;5113384;27;20047;-77
2022/09/14 03:23:42;;;;;;;21.95;13.52;;;;;;;14.15;100.00;98613.69;5112916;28;20100;-77
2022/09/14 03:26:11;;;;;;;20.80;12.65;;;;;;;14.15;100.00;98620.00;5113434;27;20506;-77
2022/09/14 03:28:39;;;;;;;19.83;12.23;;;;;;;14.22;100.00;98612.13;5113605;27;20495;-77
2022/09/14 03:31:09;;;;;;;24.55;13.13;;;;;;;14.24;100.00;98615.56;5114440;27;20093;-77
2022/09/14 03:33:36;;;;;;;21.63;13.20;;;;;;;14.24;100.00;98614.72;5117509;28;20054;-77
2022/09/14 03:36:12;;;;;;;19.60;12.27;;;;;;;14.25;100.00;98617.28;5117463;27;20046;-78
2022/09/14 03:38:43;;;;;;;20.35;11.95;;;;;;;14.26;100.00;98623.59;5098394;28;20058;-77
2022/09/14 03:41:11;;;;;;;18.95;12.57;;;;;;;14.27;100.00;98626.16;5096917;28;20048;-77
2022/09/14 03:43:39;;;;;;;18.90;12.43;;;;;;;14.27;100.00;98622.59;5096749;28;20062;-77
2022/09/14 03:46:07;;;;;;;19.00;11.77;;;;;;;14.32;100.00;98620.31;5097069;28;20048;-77
2022/09/14 03:48:34;;;;;;;18.23;11.60;;;;;;;14.28;100.00;98629.75;5101254;28;20042;-77
2022/09/14 03:51:02;;;;;;;17.50;11.63;;;;;;;14.28;100.00;98630.63;5117156;27;20051;-77
2022/09/14 03:53:32;;;;;;;18.70;11.40;;;;;;;14.31;100.00;98633.03;5117339;28;20442;-77
2022/09/14 03:55:59;;;;;;;18.55;11.95;;;;;;;14.33;100.00;98624.75;5116820;27;20408;-75
2022/09/14 03:58:27;;;;;;;18.50;11.75;;;;;;;14.33;100.00;98631.03;5117068;28;20051;-77
2022/09/14 04:00:55;;;;;;;18.52;11.77;;;;;;;14.31;100.00;98632.16;5116812;27;20043;-77
2022/09/14 04:03:23;;;;;;;19.15;11.25;;;;;;;14.32;100.00;98637.47;5116744;28;20044;-76
2022/09/14 04:05:57;;;;;;;18.25;11.13;;;;;;;14.24;100.00;98637.28;5117149;27;20591;-77
2022/09/14 04:08:24;;;;;;;18.45;11.55;;;;;;;14.26;100.00;98637.16;5116985;28;20097;-77
2022/09/14 04:10:53;;;;;;;19.63;13.05;;;;;;;14.22;100.00;98639.28;5116919;27;20400;-77
2022/09/14 04:13:21;;;;;;;17.90;11.82;;;;;;;14.25;100.00;98640.88;5116746;27;20060;-76
2022/09/14 04:15:56;;;;;;;21.50;11.63;;;;;;;14.21;100.00;98640.28;5116757;27;20040;-77
2022/09/14 04:18:24;;;;;;;18.73;11.43;;;;;;;14.22;100.00;98638.44;5118444;28;20043;-77
2022/09/14 04:20:59;;;;;;;20.23;11.30;;;;;;;14.13;100.00;98642.84;5116792;28;20051;-76
2022/09/14 04:23:27;;;;;;;19.75;11.88;;;;;;;14.10;100.00;98649.44;5117113;28;20497;-77
2022/09/14 04:25:56;;;;;;;20.17;11.40;;;;;;;14.06;100.00;98647.97;5116848;27;20100;-77
2022/09/14 04:28:24;;;;;;;17.67;11.40;;;;;;;14.08;100.00;98650.56;5116612;28;20054;-77
2022/09/14 04:30:58;;;;;;;18.30;10.93;;;;;;;14.01;100.00;98661.09;5116565;28;20048;-76
2022/09/14 04:33:27;;;;;;;17.23;10.98;;;;;;;14.00;100.00;98664.81;5115743;28;20051;-77
2022/09/14 04:36:00;;;;;;;15.65;10.20;;;;;;;14.01;100.00;98661.09;5116180;28;20063;-76
2022/09/14 04:38:28;;;;;;;18.70;11.27;;;;;;;14.02;100.00;98670.94;5116466;27;20040;-76
2022/09/14 04:40:58;;;;;;;16.83;10.75;;;;;;;14.12;100.00;98671.00;5113301;27;20040;-75
2022/09/14 04:43:26;;;;;;;16.80;10.32;;;;;;;14.15;100.00;98674.31;5111870;28;20048;-76
2022/09/14 04:45:53;;;;;;;16.77;10.02;;;;;;;14.16;100.00;98683.28;5112662;28;20044;-76
2022/09/14 04:48:21;;;;;;;16.45;9.80;;;;;;;14.11;100.00;98675.59;5112626;28;20054;-76
2022/09/14 04:50:48;;;;;;;16.63;9.93;;;;;;;14.18;100.00;98679.47;5112904;28;20044;-76
2022/09/14 04:53:16;;;;;;;16.17;10.18;;;;;;;14.08;100.00;98677.69;5112435;28;20104;-76
2022/09/14 04:55:43;;;;;;;17.75;11.35;;;;;;;14.20;100.00;98688.31;5112627;28;20051;-74
2022/09/14 04:58:14;;;;;;;19.38;11.38;;;;;;;14.09;100.00;98688.44;5112164;28;20051;-76
2022/09/14 05:00:42;;;;;;;19.05;11.65;;;;;;;14.12;100.00;98680.00;5112126;28;20040;-75
2022/09/14 05:03:09;;;;;;;18.92;11.27;;;;;;;14.01;100.00;98682.81;5111883;28;20050;-75
2022/09/14 05:05:37;;;;;;;20.25;12.38;;;;;;;14.02;100.00;98685.41;5112532;28;20415;-74
2022/09/14 05:08:05;;;;;;;20.48;11.32;;;;;;;14.12;100.00;98688.16;5112452;27;20069;-74
2022/09/14 05:10:32;;;;;;;19.60;11.27;;;;;;;14.18;100.00;98695.75;5112546;28;20044;-77
2022/09/14 05:13:00;;;;;;;20.20;11.95;;;;;;;14.10;100.00;98692.88;5115548;27;20056;-75
2022/09/14 05:15:29;;;;;;;20.40;12.48;;;;;;;14.07;100.00;98684.97;5115744;28;20046;-75
2022/09/14 05:17:56;;;;;;;19.88;11.35;;;;;;;14.15;100.00;98700.59;5114587;28;20043;-75
2022/09/14 05:20:24;;;;;;;19.52;10.85;;;;;;;14.16;100.00;98688.72;5114959;28;20047;-74
2022/09/14 05:22:51;;;;;;;18.48;10.65;;;;;;;14.22;100.00;98692.75;5115449;27;20453;-75
2022/09/14 05:25:19;;;;;;;18.50;10.88;;;;;;;14.24;100.00;98688.03;5115551;27;20047;-75
2022/09/14 05:27:46;;;;;;;20.42;11.60;;;;;;;14.17;100.00;98688.59;5115452;28;20043;-75
2022/09/14 05:30:14;;;;;;;19.10;11.80;;;;;;;14.15;100.00;98690.59;5115271;28;20040;-75
2022/09/14 05:32:43;;;;;;;18.98;12.10;;;;;;;14.16;100.00;98689.59;5114992;27;20050;-75
2022/09/14 05:35:10;;;;;;;17.77;11.25;;;;;;;14.23;100.00;98689.88;5115195;27;20040;-74
2022/09/14 05:37:38;;;;;;;20.30;11.23;;;;;;;14.15;100.00;98696.03;5115201;28;20047;-75
2022/09/14 05:40:07;;;;;;;19.13;11.20;;;;;;;14.23;100.00;98694.47;5115243;28;20112;-75
2022/09/14 05:42:35;;;;;;;16.05;10.25;;;;;;;14.18;100.00;98701.19;5115074;28;20047;-75
2022/09/14 05:45:03;;;;;;;20.10;10.77;;;;;;;14.23;100.00;98694.47;5114674;27;20550;-74
2022/09/14 05:47:30;;;;;;;17.23;10.73;;;;;;;14.27;100.00;98696.75;5115017;27;20118;-75
2022/09/14 05:49:59;;;;;;;17.27;10.68;;;;;;;14.33;100.00;98704.38;5115187;28;20051;-75
2022/09/14 05:52:29;;;;;;;19.08;12.15;;;;;;;14.29;100.00;98702.94;5114667;27;20103;-75
2022/09/14 05:54:56;;;;;;;17.67;11.13;;;;;;;14.30;100.00;98703.78;5103925;27;20044;-75
2022/09/14 05:57:24;;;;;;;16.55;10.07;;;;;;;14.33;100.00;98703.50;5097062;28;20068;-75
2022/09/14 05:59:52;;;;;;;18.20;10.52;;;;;;;14.28;100.00;98697.63;5104971;28;20047;-76
2022/09/14 06:02:19;;;;;;;18.17;10.65;;;;;;;14.28;100.00;98697.63;5111644;28;20394;-77
2022/09/14 06:04:46;;;;;;;16.98;9.95;;;;;;;14.27;100.00;98702.19;5099914;28;20044;-76
2022/09/14 06:07:16;;;;;;;18.48;10.07;;;;;;;14.36;100.00;98695.06;5096003;28;20040;-80
2022/09/14 06:09:43;;;;;;;17.70;9.75;;;;;;;14.35;100.00;98701.50;5105021;28;20046;-74
2022/09/14 06:12:11;;;;;;;15.13;9.05;;;;;;;14.38;100.00;98700.38;5108451;28;20044;-75
2022/09/14 06:14:39;;;;;;;17.17;9.23;;;;;;;14.34;100.00;98705.22;5098280;27;20448;-75
2022/09/14 06:17:07;;;;;;;18.55;9.27;;;;;;;14.42;100.00;98697.22;5097664;28;20070;-76
2022/09/14 06:19:34;;;;;;;15.68;9.93;;;;;;;14.42;100.00;98702.66;5103847;28;20043;-73
2022/09/14 06:22:02;;;;;;;19.08;10.93;;;;;;;14.51;100.00;98705.56;5099485;28;20048;-75
2022/09/14 06:24:31;;;;;;;16.88;9.85;;;;;;;14.46;100.00;98709.53;5104844;28;20044;-75
2022/09/14 06:26:58;;;;;;;16.67;10.32;;;;;;;14.53;100.00;98715.28;5090026;28;20052;-76
2022/09/14 06:29:26;;;;;;;19.02;10.25;;;;;;;14.54;100.00;98710.72;5089837;28;20044;-75
2022/09/14 06:31:54;;;;;;;16.20;9.90;;;;;;;14.47;100.00;98713.13;5090601;28;20047;-75
2022/09/14 06:34:21;;;;;;;17.00;9.88;;;;;;;14.49;100.00;98705.69;5102513;28;20054;-75
2022/09/14 06:36:49;;;;;;;17.23;9.45;;;;;;;14.57;100.00;98703.13;5110417;28;20044;-73
2022/09/14 06:39:17;;;;;;;16.33;10.02;;;;;;;14.64;100.00;98714.31;5110186;28;20055;-73
2022/09/14 06:41:46;;;;;;;16.67;9.68;;;;;;;14.68;100.00;98723.03;5110375;28;20050;-72
2022/09/14 06:44:14;;;;;;;17.67;9.55;;;;;;;14.73;100.00;98710.78;5098500;28;20044;-74
2022/09/14 06:46:41;;;;;;;15.73;8.82;;;;;;;14.69;100.00;98713.91;5094800;27;20513;-72
2022/09/14 06:49:11;;;;;;;16.75;9.43;;;;;;;14.61;100.00;98712.72;5106615;28;20048;-77
2022/09/14 06:51:41;;;;;;;18.40;8.40;;;;;;;14.59;100.00;98714.72;5105945;28;20182;-75
2022/09/14 06:54:10;;;;;;;14.77;8.80;;;;;;;14.68;100.00;98710.31;5099659;28;20050;-72
2022/09/14 06:56:38;;;;;;;13.10;7.95;;;;;;;14.74;100.00;98706.22;5109834;28;20051;-74
2022/09/14 06:59:09;;;;;;;16.90;8.90;;;;;;;14.67;100.00;98711.31;5109498;28;20471;-73
2022/09/14 07:01:37;;;;;;;14.27;8.65;;;;;;;14.72;100.00;98711.78;5109765;28;20489;-73
2022/09/14 07:04:05;;;;;;;15.02;9.05;;;;;;;14.80;100.00;98711.09;5107366;27;20066;-73
2022/09/14 07:06:34;;;;;;;17.60;10.23;;;;;;;14.80;100.00;98704.78;5090688;28;20528;-74
2022/09/14 07:09:04;;;;;;;18.00;10.20;;;;;;;14.85;100.00;98707.91;5105986;28;20078;-74
2022/09/14 07:11:32;;;;;;;14.45;8.52;;;;;;;14.98;100.00;98718.53;5097969;28;20044;-73
2022/09/14 07:14:00;;;;;;;13.30;7.95;;;;;;;14.90;100.00;98705.66;5109804;28;20113;-76
2022/09/14 07:16:30;;;;;;;16.50;8.68;;;;;;;14.99;100.00;98712.97;5113429;28;20108;-72
2022/09/14 07:19:00;;;;;;;14.82;8.63;;;;;;;15.10;100.00;98716.53;5113369;28;20047;-79
2022/09/14 07:21:29;;;;;;;16.75;10.13;;;;;;;15.10;100.00;98717.41;5111577;27;20044;-75
2022/09/14 07:23:56;;;;;;;15.38;9.68;;;;;;;15.04;100.00;98724.25;5094075;28;20054;-76
2022/09/14 07:26:25;;;;;;;17.08;10.50;;;;;;;14.99;100.00;98732.00;5092062;28;20058;-75
2022/09/14 07:28:55;;;;;;;20.52;10.38;;;;;;;14.99;100.00;98737.44;5100163;28;20042;-75
2022/09/14 07:31:25;;;;;;;16.42;10.10;;;;;;;14.91;100.00;98740.00;5113304;28;20043;-75
2022/09/14 07:33:55;;;;;;;20.33;10.93;;;;;;;14.90;100.00;98736.41;5113282;27;20040;-76
2022/09/14 07:36:26;;;;;;;16.35;10.38;;;;;;;14.87;100.00;98743.97;5115049;28;20548;-75
2022/09/14 07:38:55;;;;;;;16.77;10.88;;;;;;;14.92;100.00;98747.16;5113922;28;20622;-74
2022/09/14 07:41:24;;;;;;;19.92;11.80;;;;;;;14.93;100.00;98732.56;5112930;28;20039;-75
2022/09/14 07:43:52;;;;;;;19.10;11.30;;;;;;;14.86;100.00;98737.69;5113436;28;20052;-75
2022/09/14 07:46:20;;;;;;;17.08;11.10;;;;;;;14.85;100.00;98740.53;5113285;28;20047;-75
2022/09/14 07:48:48;;;;;;;17.42;10.75;;;;;;;14.93;100.00;98748.88;5113490;27;20054;-74
2022/09/14 07:51:18;;;;;;;16.13;10.52;;;;;;;14.89;100.00;98741.97;5113238;28;20050;-74
2022/09/14 07:53:45;;;;;;;18.70;10.40;;;;;;;14.82;100.00;98740.81;5113267;27;20036;-75
2022/09/14 07:56:15;;;;;;;18.30;11.45;;;;;;;14.87;100.00;98749.41;5113060;27;20492;-75
2022/09/14 07:58:43;;;;;;;18.83;11.80;;;;;;;14.99;100.00;98737.44;5113441;27;20051;-75
2022/09/14 08:01:12;;;;;;;17.08;11.18;;;;;;;14.92;100.00;98747.16;5113235;27;20043;-75
2022/09/14 08:03:41;;;;;;;16.92;10.88;;;;;;;15.02;100.00;98737.13;5113079;28;20108;-74
2022/09/14 08:06:12;;;;;;;18.95;11.50;;;;;;;15.04;100.00;98742.41;5113093;27;20039;-74
2022/09/14 08:08:43;;;;;;;19.17;12.15;;;;;;;14.99;100.00;98736.56;5112891;28;20047;-76
2022/09/14 08:11:13;;;;;;;19.08;11.50;;;;;;;14.99;100.00;98742.88;5112669;28;20493;-75
2022/09/14 08:13:41;;;;;;;17.90;11.90;;;;;;;15.03;100.00;98730.69;5112995;28;20059;-75
2022/09/14 08:16:09;;;;;;;18.55;12.10;;;;;;;15.04;100.00;98734.25;5112945;28;20053;-75
2022/09/14 08:18:38;;;;;;;18.27;11.63;;;;;;;15.04;100.00;98723.38;5114497;28;20544;-75
2022/09/14 08:21:06;;;;;;;22.70;12.40;;;;;;;15.07;100.00;98718.53;5116642;28;20039;-75
2022/09/14 08:23:35;;;;;;;18.33;11.90;;;;;;;15.19;100.00;98708.38;5116743;28;20408;-75
2022/09/14 08:26:05;;;;;;;20.77;11.25;;;;;;;15.38;100.00;98713.94;5116212;28;20127;-75
2022/09/14 08:28:32;;;;;;;16.90;10.77;;;;;;;15.54;100.00;98716.91;5116640;28;20044;-74
2022/09/14 08:31:04;;;;;;;19.77;11.73;;;;;;;15.58;100.00;98723.78;5116644;28;20047;-74
2022/09/14 08:33:33;;;;;;;17.50;11.13;;;;;;;15.64;100.00;98719.63;5116380;28;20095;-75
2022/09/14 08:36:01;;;;;;;18.67;10.50;;;;;;;15.52;100.00;98726.25;5116305;28;20138;-75
2022/09/14 08:38:29;;;;;;;20.98;12.07;;;;;;;15.65;100.00;98722.19;5116566;27;20043;-74
2022/09/14 08:40:58;;;;;;;18.67;11.65;;;;;;;15.76;100.00;98723.88;5116092;28;20048;-75
2022/09/14 08:43:27;;;;;;;19.25;12.98;;;;;;;15.65;100.00;98727.63;5116282;28;20039;-76
2022/09/14 08:46:01;;;;;;;18.48;11.82;;;;;;;15.69;100.00;98719.16;5116302;27;20043;-75
2022/09/14 08:48:33;;;;;;;18.25;10.32;;;;;;;15.68;100.00;98715.59;5118156;28;20043;-74
2022/09/14 08:51:01;;;;;;;17.63;10.93;;;;;;;15.82;100.00;98718.84;5116329;28;20058;-75
2022/09/14 08:53:28;;;;;;;21.25;13.27;;;;;;;15.93;100.00;98721.47;5115906;28;20407;-74
2022/09/14 08:56:00;;;;;;;21.33;12.98;;;;;;;15.95;100.00;98715.84;5116203;28;20036;-74
2022/09/14 08:58:38;;;;;;;20.55;11.15;;;;;;;16.07;100.00;98720.09;5118235;27;20127;-75
2022/09/14 09:01:12;;;;;;;20.67;11.23;;;;;;;15.99;100.00;98734.47;5117797;28;20104;-75
2022/09/14 09:03:53;;;;;;;18.58;11.05;;;;;;;16.07;100.00;98725.53;5115887;28;20048;-75
2022/09/14 09:06:28;;;;;;;20.13;11.93;;;;;;;16.00;100.00;98729.88;5116188;28;20047;-75
2022/09/14 09:09:03;;;;;;;21.90;13.10;;;;;;;16.06;100.00;98723.81;5115864;27;20641;-75
2022/09/14 09:11:39;;;;;;;22.00;13.38;;;;;;;16.03;100.00;98721.41;5116553;28;20043;-75
2022/09/14 09:14:16;;;;;;;22.25;13.00;;;;;;;15.96;100.00;98732.06;5116355;28;20081;-74
2022/09/14 09:16:45;;;;;;;24.00;13.18;;;;;;;16.02;100.00;98727.84;5115565;28;20048;-75
2022/09/14 09:19:18;;;;;;;21.48;12.80;;;;;;;15.93;100.00;98733.19;5115853;28;20043;-75
2022/09/14 09:21:46;;;;;;;21.92;12.57;;;;;;;15.96;100.00;98733.91;5095230;28;20098;-76
2022/09/14 09:24:22;;;;;;;22.92;13.43;;;;;;;15.91;100.00;98729.75;5094908;28;20040;-75
2022/09/14 09:26:50;;;;;;;21.27;12.55;;;;;;;15.86;100.00;98732.03;5095839;28;20051;-75
2022/09/14 09:29:19;;;;;;;21.80;13.85;;;;;;;15.97;100.00;98730.16;5094785;28;20055;-75
2022/09/14 09:31:49;;;;;;;22.08;12.77;;;;;;;15.83;100.00;98728.75;5102218;27;20044;-75
2022/09/14 09:34:21;;;;;;;23.17;13.07;;;;;;;15.84;100.00;98722.28;5105193;28;20051;-77
2022/09/14 09:36:49;;;;;;;20.40;12.60;;;;;;;15.98;100.00;98723.72;5104729;28;20050;-76
2022/09/14 09:39:17;;;;;;;23.88;13.23;;;;;;;16.00;100.00;98718.97;5110796;28;20493;-77
2022/09/14 09:41:49;;;;;;;19.80;12.45;;;;;;;16.11;100.00;98720.66;5098792;28;20044;-75
2022/09/14 09:44:18;;;;;;;21.00;12.45;;;;;;;16.13;100.00;98711.34;5099000;28;20051;-75
2022/09/14 09:46:47;;;;;;;22.15;12.98;;;;;;;16.22;100.00;98720.47;5111185;28;20040;-74
2022/09/14 09:49:18;;;;;;;18.77;12.15;;;;;;;16.24;100.00;98715.72;5097067;27;20059;-73
2022/09/14 09:51:46;;;;;;;21.27;13.52;;;;;;;16.36;100.00;98713.66;5090745;28;20055;-73
2022/09/14 09:54:24;;;;;;;19.92;12.90;;;;;;;16.50;100.00;98725.94;5090897;28;20512;-73
2022/09/14 09:56:54;;;;;;;21.63;12.60;;;;;;;16.52;100.00;98713.00;5090958;28;20574;-72
2022/09/14 09:59:28;;;;;;;20.02;12.50;;;;;;;16.45;100.00;98704.56;5090465;28;20048;-72
2022/09/14 10:01:56;;;;;;;19.60;12.38;;;;;;;16.54;100.00;98699.25;5090731;28;20773;-72
2022/09/14 10:04:27;;;;;;;22.45;13.60;;;;;;;16.76;100.00;98693.34;5090727;28;20420;-73
2022/09/14 10:06:56;;;;;;;19.42;12.18;;;;;;;16.95;100.00;98708.69;5090125;28;20048;-72
2022/09/14 10:09:27;;;;;;;19.02;11.80;;;;;;;16.96;100.00;98706.84;5102732;28;20480;-73
2022/09/14 10:11:59;;;;;;;20.38;11.73;;;;;;;16.90;100.00;98704.72;5091776;28;20043;-74
2022/09/14 10:14:31;;;;;;;21.05;12.18;;;;;;;16.85;100.00;98707.06;5090876;28;20070;-82
2022/09/14 10:17:06;;;;;;;20.40;12.05;;;;;;;16.83;100.00;98698.16;5112021;28;20055;-82
2022/09/14 10:19:34;;;;;;;20.27;12.40;;;;;;;16.78;100.00;98688.59;5112684;28;20042;-81
2022/09/14 10:22:05;;;;;;;19.13;11.32;;;;;;;16.82;100.00;98693.72;5112209;28;20059;-83
2022/09/14 10:24:34;;;;;;;15.30;9.25;;;;;;;16.74;100.00;98689.91;5109360;27;20039;-73
2022/09/14 10:27:02;;;;;;;20.02;11.90;;;;;;;16.88;100.00;98693.09;5106176;28;20051;-74
2022/09/14 10:29:39;;;;;;;17.73;10.07;;;;;;;17.01;100.00;98688.16;5089983;28;20048;-74
2022/09/14 10:32:17;;;;;;;21.45;11.07;;;;;;;17.02;100.00;98692.63;5093808;28;20093;-76
2022/09/14 10:34:44;;;;;;;20.23;10.65;;;;;;;16.94;100.00;98693.34;5109876;28;20065;-75
2022/09/14 10:37:32;;;;;;;19.33;10.32;;;;;;;16.94;100.00;98700.69;5099634;27;20048;-75
2022/09/14 10:40:12;;;;;;;18.52;10.65;;;;;;;16.95;100.00;98703.25;5111214;28;20104;-75
2022/09/14 10:42:45;;;;;;;18.27;11.10;;;;;;;17.12;100.00;98703.41;5111446;28;20048;-75
2022/09/14 10:45:19;;;;;;;17.50;9.85;;;;;;;17.26;100.00;98702.00;5113567;28;20051;-75
2022/09/14 10:48:05;;;;;;;15.15;8.70;;;;;;;17.29;100.00;98698.97;5112033;28;20036;-75
2022/09/14 10:50:50;;;;;;;15.73;9.18;;;;;;;17.27;100.00;98702.88;5112384;28;20036;-75
2022/09/14 10:53:28;;;;;;;15.50;9.45;;;;;;;17.33;100.00;98710.44;5112787;28;20047;-74
2022/09/14 10:56:00;;;;;;;16.70;9.40;;;;;;;17.38;100.00;98708.97;5112647;28;20549;-75
2022/09/14 10:58:48;;;;;;;21.67;13.23;;;;;;;17.27;100.00;98702.88;5109903;28;20051;-75
2022/09/14 11:01:28;;;;;;;15.55;8.73;;;;;;;17.18;100.00;98707.41;5112176;28;20044;-75
2022/09/14 11:04:14;;;;;;;14.65;6.70;;;;;;;17.05;98.68;98696.88;5105135;28;20040;-75
2022/09/14 11:06:48;;;;;;;23.83;12.13;;;;;;;17.02;99.46;98702.66;5113147;28;20039;-75
2022/09/14 11:09:22;;;;;;;17.25;8.63;;;;;;;17.05;99.69;98703.22;5113407;27;20047;-74
2022/09/14 11:11:56;;;;;;;18.17;7.85;;;;;;;16.98;99.71;98702.13;5107272;28;20046;-75
2022/09/14 11:14:36;;;;;;;13.98;7.40;;;;;;;17.09;99.89;98695.56;5112002;27;20078;-75
2022/09/14 11:17:19;;;;;;;14.65;8.10;;;;;;;17.20;100.00;98697.19;5110617;28;20051;-76
2022/09/14 11:19:54;;;;;;;13.95;7.97;;;;;;;17.33;99.78;98691.34;5109200;28;20040;-75
2022/09/14 11:22:28;;;;;;;13.85;7.07;;;;;;;17.41;98.62;98696.84;5113237;28;20039;-75
2022/09/14 11:24:59;;;;;;;16.80;8.32;;;;;;;17.52;98.47;98684.84;5113163;28;20086;-75